sensor_id;sensor_type;location;lat;lon;timestamp;P1;durP1;ratioP1;P2;durP2;ratioP2
41881;SDS011;27562;47.524;12.404;2022-09-12T00:00:48;4.65;;;1.50;;
41881;SDS011;27562;47.524;12.404;2022-09-12T00:03:14;3.47;;;1.48;;
41881;SDS011;27562;47.524;12.404;2022-09-12T00:05:44;3.40;;;1.65;;
41881;SDS011;27562;47.524;12.404;2022-09-12T00:08:11;2.60;;;1.52;;
41881;SDS011;27562;47.524;12.404;2022-09-12T00:10:38;2.13;;;1.40;;
41881;SDS011;27562;47.524;12.404;2022-09-12T00:13:05;1.50;;;1.00;;
41881;SDS011;27562;47.524;12.404;2022-09-12T00:15:31;2.67;;;1.52;;
41881;SDS011;27562;47.524;12.404;2022-09-12T00:18:01;3.08;;;1.48;;
41881;SDS011;27562;47.524;12.404;2022-09-12T00:20:27;2.80;;;1.90;;
41881;SDS011;27562;47.524;12.404;2022-09-12T00:22:52;3.25;;;2.00;;
41881;SDS011;27562;47.524;12.404;2022-09-12T00:25:18;3.03;;;2.42;;
41881;SDS011;27562;47.524;12.404;2022-09-12T00:27:44;5.28;;;3.03;;
41881;SDS011;27562;47.524;12.404;2022-09-12T00:30:09;4.82;;;3.40;;
41881;SDS011;27562;47.524;12.404;2022-09-12T00:32:35;6.35;;;3.72;;
41881;SDS011;27562;47.524;12.404;2022-09-12T00:35:01;4.80;;;3.15;;
41881;SDS011;27562;47.524;12.404;2022-09-12T00:37:27;5.35;;;3.00;;
41881;SDS011;27562;47.524;12.404;2022-09-12T00:39:52;5.50;;;3.55;;
41881;SDS011;27562;47.524;12.404;2022-09-12T00:42:18;5.95;;;4.07;;
41881;SDS011;27562;47.524;12.404;2022-09-12T00:44:46;5.15;;;3.92;;
41881;SDS011;27562;47.524;12.404;2022-09-12T00:55:06;4.40;;;3.17;;
41881;SDS011;27562;47.524;12.404;2022-09-12T00:57:55;5.18;;;3.58;;
41881;SDS011;27562;47.524;12.404;2022-09-12T01:00:57;5.13;;;3.47;;
41881;SDS011;27562;47.524;12.404;2022-09-12T01:03:23;4.55;;;3.25;;
41881;SDS011;27562;47.524;12.404;2022-09-12T01:06:14;7.75;;;4.47;;
41881;SDS011;27562;47.524;12.404;2022-09-12T01:08:38;4.75;;;3.67;;
41881;SDS011;27562;47.524;12.404;2022-09-12T01:11:05;4.20;;;3.20;;
41881;SDS011;27562;47.524;12.404;2022-09-12T01:13:33;5.97;;;4.25;;
41881;SDS011;27562;47.524;12.404;2022-09-12T01:16:01;5.80;;;4.15;;
41881;SDS011;27562;47.524;12.404;2022-09-12T01:37:57;3.20;;;2.40;;
41881;SDS011;27562;47.524;12.404;2022-09-12T01:46:02;5.30;;;3.10;;
41881;SDS011;27562;47.524;12.404;2022-09-12T01:48:38;5.72;;;3.10;;
41881;SDS011;27562;47.524;12.404;2022-09-12T01:51:22;5.40;;;4.00;;
41881;SDS011;27562;47.524;12.404;2022-09-12T01:53:51;5.07;;;3.42;;
41881;SDS011;27562;47.524;12.404;2022-09-12T01:56:23;4.90;;;3.13;;
41881;SDS011;27562;47.524;12.404;2022-09-12T02:02:05;4.00;;;3.05;;
41881;SDS011;27562;47.524;12.404;2022-09-12T02:04:43;4.38;;;3.42;;
41881;SDS011;27562;47.524;12.404;2022-09-12T02:07:30;4.32;;;3.17;;
41881;SDS011;27562;47.524;12.404;2022-09-12T02:10:17;6.13;;;3.70;;
41881;SDS011;27562;47.524;12.404;2022-09-12T02:13:00;5.72;;;4.18;;
41881;SDS011;27562;47.524;12.404;2022-09-12T02:15:33;5.70;;;3.80;;
41881;SDS011;27562;47.524;12.404;2022-09-12T02:18:07;4.63;;;3.33;;
41881;SDS011;27562;47.524;12.404;2022-09-12T02:23:06;5.55;;;3.75;;
41881;SDS011;27562;47.524;12.404;2022-09-12T02:28:05;5.90;;;3.60;;
41881;SDS011;27562;47.524;12.404;2022-09-12T02:30:39;6.18;;;3.92;;
41881;SDS011;27562;47.524;12.404;2022-09-12T02:33:19;5.10;;;3.53;;
41881;SDS011;27562;47.524;12.404;2022-09-12T02:38:56;6.68;;;3.85;;
41881;SDS011;27562;47.524;12.404;2022-09-12T02:41:22;6.20;;;3.80;;
41881;SDS011;27562;47.524;12.404;2022-09-12T02:43:49;4.82;;;3.50;;
41881;SDS011;27562;47.524;12.404;2022-09-12T02:46:19;4.85;;;3.33;;
41881;SDS011;27562;47.524;12.404;2022-09-12T02:48:50;5.43;;;3.75;;
41881;SDS011;27562;47.524;12.404;2022-09-12T02:51:17;5.13;;;3.33;;
41881;SDS011;27562;47.524;12.404;2022-09-12T02:53:42;5.20;;;3.92;;
41881;SDS011;27562;47.524;12.404;2022-09-12T02:56:11;4.65;;;3.20;;
41881;SDS011;27562;47.524;12.404;2022-09-12T02:58:42;4.47;;;3.13;;
41881;SDS011;27562;47.524;12.404;2022-09-12T03:07:00;3.78;;;2.20;;
41881;SDS011;27562;47.524;12.404;2022-09-12T03:15:14;4.65;;;2.85;;
41881;SDS011;27562;47.524;12.404;2022-09-12T03:20:23;4.00;;;2.65;;
41881;SDS011;27562;47.524;12.404;2022-09-12T03:22:58;3.22;;;2.35;;
41881;SDS011;27562;47.524;12.404;2022-09-12T03:25:36;4.65;;;2.50;;
41881;SDS011;27562;47.524;12.404;2022-09-12T03:28:09;3.70;;;2.50;;
41881;SDS011;27562;47.524;12.404;2022-09-12T03:30:38;4.97;;;2.50;;
41881;SDS011;27562;47.524;12.404;2022-09-12T03:33:13;4.22;;;2.30;;
41881;SDS011;27562;47.524;12.404;2022-09-12T03:35:40;3.67;;;2.10;;
41881;SDS011;27562;47.524;12.404;2022-09-12T03:38:06;3.60;;;2.40;;
41881;SDS011;27562;47.524;12.404;2022-09-12T03:40:35;2.90;;;2.10;;
41881;SDS011;27562;47.524;12.404;2022-09-12T03:43:02;3.08;;;2.28;;
41881;SDS011;27562;47.524;12.404;2022-09-12T03:45:28;2.95;;;2.17;;
41881;SDS011;27562;47.524;12.404;2022-09-12T03:47:54;3.40;;;2.40;;
41881;SDS011;27562;47.524;12.404;2022-09-12T03:50:20;4.10;;;2.80;;
41881;SDS011;27562;47.524;12.404;2022-09-12T03:52:46;3.72;;;2.35;;
41881;SDS011;27562;47.524;12.404;2022-09-12T03:55:12;3.75;;;2.20;;
41881;SDS011;27562;47.524;12.404;2022-09-12T03:57:38;3.45;;;2.47;;
41881;SDS011;27562;47.524;12.404;2022-09-12T04:00:05;3.90;;;2.72;;
41881;SDS011;27562;47.524;12.404;2022-09-12T04:02:32;3.70;;;2.65;;
41881;SDS011;27562;47.524;12.404;2022-09-12T04:04:58;3.78;;;2.65;;
41881;SDS011;27562;47.524;12.404;2022-09-12T04:07:24;3.60;;;2.63;;
41881;SDS011;27562;47.524;12.404;2022-09-12T04:09:50;3.88;;;2.55;;
41881;SDS011;27562;47.524;12.404;2022-09-12T04:12:17;3.47;;;2.40;;
41881;SDS011;27562;47.524;12.404;2022-09-12T04:14:43;3.42;;;2.17;;
41881;SDS011;27562;47.524;12.404;2022-09-12T04:17:09;4.38;;;2.20;;
41881;SDS011;27562;47.524;12.404;2022-09-12T04:19:35;2.83;;;2.05;;
41881;SDS011;27562;47.524;12.404;2022-09-12T04:22:01;2.70;;;2.05;;
41881;SDS011;27562;47.524;12.404;2022-09-12T04:24:27;3.67;;;2.38;;
41881;SDS011;27562;47.524;12.404;2022-09-12T04:26:52;3.40;;;1.90;;
41881;SDS011;27562;47.524;12.404;2022-09-12T04:29:18;3.50;;;2.10;;
41881;SDS011;27562;47.524;12.404;2022-09-12T04:31:44;2.78;;;1.90;;
41881;SDS011;27562;47.524;12.404;2022-09-12T04:34:09;3.22;;;2.15;;
41881;SDS011;27562;47.524;12.404;2022-09-12T04:36:35;3.03;;;2.10;;
41881;SDS011;27562;47.524;12.404;2022-09-12T04:39:02;3.10;;;2.28;;
41881;SDS011;27562;47.524;12.404;2022-09-12T04:41:35;2.60;;;1.90;;
41881;SDS011;27562;47.524;12.404;2022-09-12T04:44:04;2.88;;;2.08;;
41881;SDS011;27562;47.524;12.404;2022-09-12T04:46:37;3.17;;;2.25;;
41881;SDS011;27562;47.524;12.404;2022-09-12T04:49:04;3.28;;;2.30;;
41881;SDS011;27562;47.524;12.404;2022-09-12T04:51:31;3.08;;;2.28;;
41881;SDS011;27562;47.524;12.404;2022-09-12T04:54:07;3.20;;;2.20;;
41881;SDS011;27562;47.524;12.404;2022-09-12T04:56:36;2.53;;;1.70;;
41881;SDS011;27562;47.524;12.404;2022-09-12T04:59:03;2.90;;;1.80;;
41881;SDS011;27562;47.524;12.404;2022-09-12T05:01:29;3.00;;;2.13;;
41881;SDS011;27562;47.524;12.404;2022-09-12T05:03:55;2.50;;;1.77;;
41881;SDS011;27562;47.524;12.404;2022-09-12T05:06:24;3.90;;;2.08;;
41881;SDS011;27562;47.524;12.404;2022-09-12T05:08:51;3.55;;;2.05;;
41881;SDS011;27562;47.524;12.404;2022-09-12T05:11:20;2.63;;;1.63;;
41881;SDS011;27562;47.524;12.404;2022-09-12T05:13:47;3.13;;;2.03;;
41881;SDS011;27562;47.524;12.404;2022-09-12T05:16:14;2.92;;;1.70;;
41881;SDS011;27562;47.524;12.404;2022-09-12T05:18:41;3.28;;;2.10;;
41881;SDS011;27562;47.524;12.404;2022-09-12T05:21:10;4.15;;;2.05;;
41881;SDS011;27562;47.524;12.404;2022-09-12T05:23:38;3.08;;;1.90;;
41881;SDS011;27562;47.524;12.404;2022-09-12T05:26:04;3.13;;;1.95;;
41881;SDS011;27562;47.524;12.404;2022-09-12T05:28:32;2.10;;;1.42;;
41881;SDS011;27562;47.524;12.404;2022-09-12T05:33:29;4.25;;;1.80;;
41881;SDS011;27562;47.524;12.404;2022-09-12T05:35:55;2.85;;;1.60;;
41881;SDS011;27562;47.524;12.404;2022-09-12T05:38:21;2.70;;;1.58;;
41881;SDS011;27562;47.524;12.404;2022-09-12T05:40:49;2.88;;;1.90;;
41881;SDS011;27562;47.524;12.404;2022-09-12T05:43:15;2.58;;;1.73;;
41881;SDS011;27562;47.524;12.404;2022-09-12T05:45:41;2.70;;;1.70;;
41881;SDS011;27562;47.524;12.404;2022-09-12T05:48:07;3.38;;;1.92;;
41881;SDS011;27562;47.524;12.404;2022-09-12T05:50:33;3.20;;;1.80;;
41881;SDS011;27562;47.524;12.404;2022-09-12T05:52:58;2.92;;;1.92;;
41881;SDS011;27562;47.524;12.404;2022-09-12T05:55:24;4.65;;;2.38;;
41881;SDS011;27562;47.524;12.404;2022-09-12T05:57:50;3.08;;;1.77;;
41881;SDS011;27562;47.524;12.404;2022-09-12T06:00:16;6.13;;;2.28;;
41881;SDS011;27562;47.524;12.404;2022-09-12T06:02:43;5.57;;;2.50;;
41881;SDS011;27562;47.524;12.404;2022-09-12T06:05:08;3.72;;;1.85;;
41881;SDS011;27562;47.524;12.404;2022-09-12T06:07:34;2.45;;;1.58;;
41881;SDS011;27562;47.524;12.404;2022-09-12T06:10:01;2.90;;;1.60;;
41881;SDS011;27562;47.524;12.404;2022-09-12T06:12:27;3.35;;;1.60;;
41881;SDS011;27562;47.524;12.404;2022-09-12T06:14:54;3.58;;;2.22;;
41881;SDS011;27562;47.524;12.404;2022-09-12T06:17:20;2.97;;;1.90;;
41881;SDS011;27562;47.524;12.404;2022-09-12T06:19:46;2.75;;;1.50;;
41881;SDS011;27562;47.524;12.404;2022-09-12T06:22:13;3.47;;;2.13;;
41881;SDS011;27562;47.524;12.404;2022-09-12T06:24:39;3.53;;;2.20;;
41881;SDS011;27562;47.524;12.404;2022-09-12T06:27:05;3.97;;;2.03;;
41881;SDS011;27562;47.524;12.404;2022-09-12T06:29:30;6.07;;;2.70;;
41881;SDS011;27562;47.524;12.404;2022-09-12T06:31:59;5.07;;;2.83;;
41881;SDS011;27562;47.524;12.404;2022-09-12T06:34:25;8.88;;;3.10;;
41881;SDS011;27562;47.524;12.404;2022-09-12T06:36:51;3.75;;;2.38;;
41881;SDS011;27562;47.524;12.404;2022-09-12T06:39:20;4.40;;;2.25;;
41881;SDS011;27562;47.524;12.404;2022-09-12T06:41:48;3.50;;;1.92;;
41881;SDS011;27562;47.524;12.404;2022-09-12T06:44:15;4.20;;;1.95;;
41881;SDS011;27562;47.524;12.404;2022-09-12T06:46:43;3.65;;;2.15;;
41881;SDS011;27562;47.524;12.404;2022-09-12T06:49:09;3.05;;;2.08;;
41881;SDS011;27562;47.524;12.404;2022-09-12T06:51:36;4.07;;;2.55;;
41881;SDS011;27562;47.524;12.404;2022-09-12T06:54:01;3.10;;;2.00;;
41881;SDS011;27562;47.524;12.404;2022-09-12T06:56:28;3.78;;;2.50;;
41881;SDS011;27562;47.524;12.404;2022-09-12T06:58:55;3.83;;;2.50;;
41881;SDS011;27562;47.524;12.404;2022-09-12T07:01:23;4.50;;;2.55;;
41881;SDS011;27562;47.524;12.404;2022-09-12T07:03:54;3.42;;;2.20;;
41881;SDS011;27562;47.524;12.404;2022-09-12T07:06:22;5.15;;;2.47;;
41881;SDS011;27562;47.524;12.404;2022-09-12T07:08:50;5.03;;;2.88;;
41881;SDS011;27562;47.524;12.404;2022-09-12T07:11:20;5.32;;;2.75;;
41881;SDS011;27562;47.524;12.404;2022-09-12T07:13:52;5.10;;;2.80;;
41881;SDS011;27562;47.524;12.404;2022-09-12T07:16:19;4.82;;;2.65;;
41881;SDS011;27562;47.524;12.404;2022-09-12T07:18:48;4.90;;;2.88;;
41881;SDS011;27562;47.524;12.404;2022-09-12T07:21:18;3.67;;;2.45;;
41881;SDS011;27562;47.524;12.404;2022-09-12T07:23:45;4.32;;;2.92;;
41881;SDS011;27562;47.524;12.404;2022-09-12T07:26:11;3.80;;;2.72;;
41881;SDS011;27562;47.524;12.404;2022-09-12T07:28:37;4.07;;;3.15;;
41881;SDS011;27562;47.524;12.404;2022-09-12T07:31:08;5.18;;;3.08;;
41881;SDS011;27562;47.524;12.404;2022-09-12T07:33:35;7.00;;;3.33;;
41881;SDS011;27562;47.524;12.404;2022-09-12T07:36:02;4.68;;;3.05;;
41881;SDS011;27562;47.524;12.404;2022-09-12T07:38:29;3.92;;;3.00;;
41881;SDS011;27562;47.524;12.404;2022-09-12T07:40:55;5.70;;;2.53;;
41881;SDS011;27562;47.524;12.404;2022-09-12T07:43:21;4.57;;;2.80;;
41881;SDS011;27562;47.524;12.404;2022-09-12T07:45:47;5.22;;;3.05;;
41881;SDS011;27562;47.524;12.404;2022-09-12T07:48:12;4.88;;;2.85;;
41881;SDS011;27562;47.524;12.404;2022-09-12T07:50:38;3.53;;;2.83;;
41881;SDS011;27562;47.524;12.404;2022-09-12T07:53:04;4.45;;;2.90;;
41881;SDS011;27562;47.524;12.404;2022-09-12T07:55:30;5.55;;;3.17;;
41881;SDS011;27562;47.524;12.404;2022-09-12T07:57:56;4.18;;;2.88;;
41881;SDS011;27562;47.524;12.404;2022-09-12T08:00:22;5.60;;;2.90;;
41881;SDS011;27562;47.524;12.404;2022-09-12T08:02:51;4.55;;;2.80;;
41881;SDS011;27562;47.524;12.404;2022-09-12T08:05:18;3.38;;;2.35;;
41881;SDS011;27562;47.524;12.404;2022-09-12T08:07:47;4.22;;;3.05;;
41881;SDS011;27562;47.524;12.404;2022-09-12T08:10:13;3.42;;;2.50;;
41881;SDS011;27562;47.524;12.404;2022-09-12T08:12:40;3.85;;;2.40;;
41881;SDS011;27562;47.524;12.404;2022-09-12T08:15:06;3.83;;;2.78;;
41881;SDS011;27562;47.524;12.404;2022-09-12T08:17:32;4.28;;;2.90;;
41881;SDS011;27562;47.524;12.404;2022-09-12T08:19:58;2.72;;;2.13;;
41881;SDS011;27562;47.524;12.404;2022-09-12T08:22:24;3.60;;;2.58;;
41881;SDS011;27562;47.524;12.404;2022-09-12T08:24:49;3.00;;;2.20;;
41881;SDS011;27562;47.524;12.404;2022-09-12T08:27:15;3.40;;;2.05;;
41881;SDS011;27562;47.524;12.404;2022-09-12T08:29:41;3.50;;;1.80;;
41881;SDS011;27562;47.524;12.404;2022-09-12T08:32:07;2.50;;;1.75;;
41881;SDS011;27562;47.524;12.404;2022-09-12T08:34:32;3.47;;;1.85;;
41881;SDS011;27562;47.524;12.404;2022-09-12T08:36:58;2.45;;;1.77;;
41881;SDS011;27562;47.524;12.404;2022-09-12T08:39:24;2.60;;;1.88;;
41881;SDS011;27562;47.524;12.404;2022-09-12T08:42:00;3.88;;;1.88;;
41881;SDS011;27562;47.524;12.404;2022-09-12T08:44:30;3.22;;;1.88;;
41881;SDS011;27562;47.524;12.404;2022-09-12T08:49:31;2.28;;;1.70;;
41881;SDS011;27562;47.524;12.404;2022-09-12T08:52:23;3.10;;;1.98;;
41881;SDS011;27562;47.524;12.404;2022-09-12T08:54:45;4.25;;;1.55;;
41881;SDS011;27562;47.524;12.404;2022-09-12T08:57:11;2.65;;;1.92;;
41881;SDS011;27562;47.524;12.404;2022-09-12T08:59:40;4.35;;;1.92;;
41881;SDS011;27562;47.524;12.404;2022-09-12T09:02:55;2.92;;;1.80;;
41881;SDS011;27562;47.524;12.404;2022-09-12T09:08:13;2.42;;;1.65;;
41881;SDS011;27562;47.524;12.404;2022-09-12T09:17:36;2.97;;;1.70;;
41881;SDS011;27562;47.524;12.404;2022-09-12T09:22:58;2.45;;;1.77;;
41881;SDS011;27562;47.524;12.404;2022-09-12T09:25:43;2.40;;;1.73;;
41881;SDS011;27562;47.524;12.404;2022-09-12T09:28:15;2.22;;;1.40;;
41881;SDS011;27562;47.524;12.404;2022-09-12T09:31:03;4.07;;;1.60;;
41881;SDS011;27562;47.524;12.404;2022-09-12T09:33:32;3.22;;;1.80;;
41881;SDS011;27562;47.524;12.404;2022-09-12T09:44:38;3.05;;;1.90;;
41881;SDS011;27562;47.524;12.404;2022-09-12T09:47:05;2.67;;;1.83;;
41881;SDS011;27562;47.524;12.404;2022-09-12T09:49:34;2.83;;;1.50;;
41881;SDS011;27562;47.524;12.404;2022-09-12T09:52:00;3.33;;;1.95;;
41881;SDS011;27562;47.524;12.404;2022-09-12T10:06:34;2.97;;;1.65;;
41881;SDS011;27562;47.524;12.404;2022-09-12T10:08:46;5.03;;;2.10;;
41881;SDS011;27562;47.524;12.404;2022-09-12T10:16:20;2.42;;;1.10;;
41881;SDS011;27562;47.524;12.404;2022-09-12T10:18:48;1.98;;;1.30;;
41881;SDS011;27562;47.524;12.404;2022-09-12T10:24:17;2.40;;;1.40;;
41881;SDS011;27562;47.524;12.404;2022-09-12T10:34:56;2.38;;;1.65;;
41881;SDS011;27562;47.524;12.404;2022-09-12T10:37:29;3.92;;;1.52;;
41881;SDS011;27562;47.524;12.404;2022-09-12T10:39:59;1.83;;;1.10;;
41881;SDS011;27562;47.524;12.404;2022-09-12T10:45:31;4.65;;;1.50;;
41881;SDS011;27562;47.524;12.404;2022-09-12T10:50:46;1.98;;;1.30;;
41881;SDS011;27562;47.524;12.404;2022-09-12T10:55:47;2.30;;;1.58;;
41881;SDS011;27562;47.524;12.404;2022-09-12T11:03:36;5.45;;;1.35;;
41881;SDS011;27562;47.524;12.404;2022-09-12T11:06:14;2.17;;;1.35;;
41881;SDS011;27562;47.524;12.404;2022-09-12T11:08:54;2.92;;;1.40;;
41881;SDS011;27562;47.524;12.404;2022-09-12T11:31:17;2.00;;;1.10;;
41881;SDS011;27562;47.524;12.404;2022-09-12T11:33:50;3.13;;;1.42;;
41881;SDS011;27562;47.524;12.404;2022-09-12T11:38:47;2.42;;;1.10;;
41881;SDS011;27562;47.524;12.404;2022-09-12T11:41:16;1.55;;;0.90;;
41881;SDS011;27562;47.524;12.404;2022-09-12T11:49:16;0.60;;;0.40;;
41881;SDS011;27562;47.524;12.404;2022-09-12T12:02:37;1.27;;;0.68;;
41881;SDS011;27562;47.524;12.404;2022-09-12T12:08:00;0.68;;;0.40;;
41881;SDS011;27562;47.524;12.404;2022-09-12T12:10:39;0.90;;;0.25;;
41881;SDS011;27562;47.524;12.404;2022-09-12T12:13:27;0.63;;;0.40;;
41881;SDS011;27562;47.524;12.404;2022-09-12T12:15:58;2.00;;;0.50;;
41881;SDS011;27562;47.524;12.404;2022-09-12T12:18:25;1.13;;;0.50;;
41881;SDS011;27562;47.524;12.404;2022-09-12T12:20:53;1.00;;;0.63;;
41881;SDS011;27562;47.524;12.404;2022-09-12T12:23:28;0.73;;;0.50;;
41881;SDS011;27562;47.524;12.404;2022-09-12T12:25:59;4.32;;;0.52;;
41881;SDS011;27562;47.524;12.404;2022-09-12T12:31:15;1.13;;;0.60;;
41881;SDS011;27562;47.524;12.404;2022-09-12T12:36:32;1.02;;;0.50;;
41881;SDS011;27562;47.524;12.404;2022-09-12T12:44:55;1.73;;;0.63;;
41881;SDS011;27562;47.524;12.404;2022-09-12T12:47:21;1.25;;;0.40;;
41881;SDS011;27562;47.524;12.404;2022-09-12T12:50:07;1.02;;;0.60;;
41881;SDS011;27562;47.524;12.404;2022-09-12T12:58:03;2.75;;;0.60;;
41881;SDS011;27562;47.524;12.404;2022-09-12T13:00:34;1.02;;;0.50;;
41881;SDS011;27562;47.524;12.404;2022-09-12T13:05:41;2.50;;;0.57;;
41881;SDS011;27562;47.524;12.404;2022-09-12T13:10:51;0.63;;;0.40;;
41881;SDS011;27562;47.524;12.404;2022-09-12T13:13:27;0.52;;;0.40;;
41881;SDS011;27562;47.524;12.404;2022-09-12T13:16:01;0.95;;;0.60;;
41881;SDS011;27562;47.524;12.404;2022-09-12T13:18:36;1.50;;;0.57;;
41881;SDS011;27562;47.524;12.404;2022-09-12T13:21:19;0.68;;;0.30;;
41881;SDS011;27562;47.524;12.404;2022-09-12T13:24:04;1.80;;;0.55;;
41881;SDS011;27562;47.524;12.404;2022-09-12T13:26:41;1.55;;;0.70;;
41881;SDS011;27562;47.524;12.404;2022-09-12T13:31:41;1.27;;;0.60;;
41881;SDS011;27562;47.524;12.404;2022-09-12T13:34:09;1.60;;;0.43;;
41881;SDS011;27562;47.524;12.404;2022-09-12T13:39:48;1.50;;;0.60;;
41881;SDS011;27562;47.524;12.404;2022-09-12T13:42:43;1.58;;;0.80;;
41881;SDS011;27562;47.524;12.404;2022-09-12T13:47:45;1.95;;;0.50;;
41881;SDS011;27562;47.524;12.404;2022-09-12T13:50:18;0.50;;;0.47;;
41881;SDS011;27562;47.524;12.404;2022-09-12T13:52:51;1.13;;;0.40;;
41881;SDS011;27562;47.524;12.404;2022-09-12T13:55:24;1.25;;;0.60;;
41881;SDS011;27562;47.524;12.404;2022-09-12T13:58:05;0.90;;;0.40;;
41881;SDS011;27562;47.524;12.404;2022-09-12T14:00:43;0.75;;;0.50;;
41881;SDS011;27562;47.524;12.404;2022-09-12T14:03:26;0.50;;;0.40;;
41881;SDS011;27562;47.524;12.404;2022-09-12T14:06:12;0.77;;;0.50;;
41881;SDS011;27562;47.524;12.404;2022-09-12T14:08:40;0.77;;;0.40;;
41881;SDS011;27562;47.524;12.404;2022-09-12T14:11:10;0.88;;;0.40;;
41881;SDS011;27562;47.524;12.404;2022-09-12T14:13:42;2.33;;;0.50;;
41881;SDS011;27562;47.524;12.404;2022-09-12T14:16:10;0.68;;;0.40;;
41881;SDS011;27562;47.524;12.404;2022-09-12T14:18:37;0.75;;;0.47;;
41881;SDS011;27562;47.524;12.404;2022-09-12T14:21:23;1.65;;;0.52;;
41881;SDS011;27562;47.524;12.404;2022-09-12T14:23:57;1.08;;;0.50;;
41881;SDS011;27562;47.524;12.404;2022-09-12T14:26:25;1.17;;;0.60;;
41881;SDS011;27562;47.524;12.404;2022-09-12T14:28:57;0.85;;;0.40;;
41881;SDS011;27562;47.524;12.404;2022-09-12T14:31:24;1.67;;;0.50;;
41881;SDS011;27562;47.524;12.404;2022-09-12T14:34:08;0.85;;;0.40;;
41881;SDS011;27562;47.524;12.404;2022-09-12T14:39:59;0.80;;;0.60;;
41881;SDS011;27562;47.524;12.404;2022-09-12T14:42:21;0.75;;;0.40;;
41881;SDS011;27562;47.524;12.404;2022-09-12T14:44:59;1.00;;;0.50;;
41881;SDS011;27562;47.524;12.404;2022-09-12T14:47:31;1.20;;;0.60;;
41881;SDS011;27562;47.524;12.404;2022-09-12T14:50:11;0.60;;;0.40;;
41881;SDS011;27562;47.524;12.404;2022-09-12T14:52:40;1.30;;;0.50;;
41881;SDS011;27562;47.524;12.404;2022-09-12T14:57:42;1.05;;;0.50;;
41881;SDS011;27562;47.524;12.404;2022-09-12T15:02:41;1.30;;;0.47;;
41881;SDS011;27562;47.524;12.404;2022-09-12T15:07:41;3.70;;;0.65;;
41881;SDS011;27562;47.524;12.404;2022-09-12T15:10:28;0.95;;;0.50;;
41881;SDS011;27562;47.524;12.404;2022-09-12T15:13:29;1.05;;;0.50;;
41881;SDS011;27562;47.524;12.404;2022-09-12T15:15:56;1.15;;;0.52;;
41881;SDS011;27562;47.524;12.404;2022-09-12T15:18:24;1.30;;;0.60;;
41881;SDS011;27562;47.524;12.404;2022-09-12T15:20:55;0.60;;;0.47;;
41881;SDS011;27562;47.524;12.404;2022-09-12T15:23:44;2.03;;;0.50;;
41881;SDS011;27562;47.524;12.404;2022-09-12T15:26:19;1.20;;;0.70;;
41881;SDS011;27562;47.524;12.404;2022-09-12T15:28:46;1.55;;;0.80;;
41881;SDS011;27562;47.524;12.404;2022-09-12T15:33:49;0.93;;;0.52;;
41881;SDS011;27562;47.524;12.404;2022-09-12T15:36:16;1.50;;;0.77;;
41881;SDS011;27562;47.524;12.404;2022-09-12T15:38:44;1.33;;;0.68;;
41881;SDS011;27562;47.524;12.404;2022-09-12T15:41:21;1.20;;;0.70;;
41881;SDS011;27562;47.524;12.404;2022-09-12T15:43:49;1.67;;;0.80;;
41881;SDS011;27562;47.524;12.404;2022-09-12T15:46:16;2.10;;;0.70;;
41881;SDS011;27562;47.524;12.404;2022-09-12T15:48:42;1.50;;;0.70;;
41881;SDS011;27562;47.524;12.404;2022-09-12T15:51:18;1.10;;;0.70;;
41881;SDS011;27562;47.524;12.404;2022-09-12T15:53:45;1.42;;;0.75;;
41881;SDS011;27562;47.524;12.404;2022-09-12T15:56:13;1.25;;;0.60;;
41881;SDS011;27562;47.524;12.404;2022-09-12T15:58:40;2.53;;;0.80;;
41881;SDS011;27562;47.524;12.404;2022-09-12T16:01:06;1.48;;;0.77;;
41881;SDS011;27562;47.524;12.404;2022-09-12T16:03:37;1.35;;;0.60;;
41881;SDS011;27562;47.524;12.404;2022-09-12T16:06:03;1.23;;;0.82;;
41881;SDS011;27562;47.524;12.404;2022-09-12T16:08:29;1.85;;;0.80;;
41881;SDS011;27562;47.524;12.404;2022-09-12T16:10:56;2.42;;;0.75;;
41881;SDS011;27562;47.524;12.404;2022-09-12T16:13:24;1.45;;;0.80;;
41881;SDS011;27562;47.524;12.404;2022-09-12T16:15:50;1.58;;;0.70;;
41881;SDS011;27562;47.524;12.404;2022-09-12T16:18:17;1.55;;;0.80;;
41881;SDS011;27562;47.524;12.404;2022-09-12T16:20:42;1.20;;;0.70;;
41881;SDS011;27562;47.524;12.404;2022-09-12T16:23:10;1.30;;;0.85;;
41881;SDS011;27562;47.524;12.404;2022-09-12T16:25:37;1.35;;;0.80;;
41881;SDS011;27562;47.524;12.404;2022-09-12T16:28:03;2.08;;;0.88;;
41881;SDS011;27562;47.524;12.404;2022-09-12T16:30:30;1.63;;;0.90;;
41881;SDS011;27562;47.524;12.404;2022-09-12T16:32:56;3.08;;;1.02;;
41881;SDS011;27562;47.524;12.404;2022-09-12T16:35:22;1.80;;;1.08;;
41881;SDS011;27562;47.524;12.404;2022-09-12T16:37:48;3.65;;;0.73;;
41881;SDS011;27562;47.524;12.404;2022-09-12T16:40:14;2.00;;;1.00;;
41881;SDS011;27562;47.524;12.404;2022-09-12T16:42:41;1.85;;;1.00;;
41881;SDS011;27562;47.524;12.404;2022-09-12T16:45:08;3.47;;;1.10;;
41881;SDS011;27562;47.524;12.404;2022-09-12T16:47:34;1.90;;;1.10;;
41881;SDS011;27562;47.524;12.404;2022-09-12T16:49:59;2.03;;;1.02;;
41881;SDS011;27562;47.524;12.404;2022-09-12T16:52:25;1.58;;;0.90;;
41881;SDS011;27562;47.524;12.404;2022-09-12T16:54:51;1.95;;;1.13;;
41881;SDS011;27562;47.524;12.404;2022-09-12T16:57:16;1.80;;;1.00;;
41881;SDS011;27562;47.524;12.404;2022-09-12T16:59:42;2.53;;;1.10;;
41881;SDS011;27562;47.524;12.404;2022-09-12T17:02:11;1.52;;;0.85;;
41881;SDS011;27562;47.524;12.404;2022-09-12T17:04:38;2.20;;;1.10;;
41881;SDS011;27562;47.524;12.404;2022-09-12T17:07:05;2.00;;;1.10;;
41881;SDS011;27562;47.524;12.404;2022-09-12T17:09:32;2.45;;;1.50;;
41881;SDS011;27562;47.524;12.404;2022-09-12T17:11:57;1.45;;;0.82;;
41881;SDS011;27562;47.524;12.404;2022-09-12T17:14:23;2.45;;;1.40;;
41881;SDS011;27562;47.524;12.404;2022-09-12T17:16:49;3.55;;;1.30;;
41881;SDS011;27562;47.524;12.404;2022-09-12T17:19:17;2.35;;;1.45;;
41881;SDS011;27562;47.524;12.404;2022-09-12T17:21:45;2.47;;;1.20;;
41881;SDS011;27562;47.524;12.404;2022-09-12T17:24:14;1.40;;;1.10;;
41881;SDS011;27562;47.524;12.404;2022-09-12T17:26:41;1.70;;;1.05;;
41881;SDS011;27562;47.524;12.404;2022-09-12T17:29:06;2.70;;;1.10;;
41881;SDS011;27562;47.524;12.404;2022-09-12T17:31:32;2.20;;;1.10;;
41881;SDS011;27562;47.524;12.404;2022-09-12T17:33:59;3.90;;;1.10;;
41881;SDS011;27562;47.524;12.404;2022-09-12T17:36:25;2.17;;;1.38;;
41881;SDS011;27562;47.524;12.404;2022-09-12T17:38:52;3.38;;;1.20;;
41881;SDS011;27562;47.524;12.404;2022-09-12T17:41:19;2.85;;;1.10;;
41881;SDS011;27562;47.524;12.404;2022-09-12T17:43:47;2.30;;;1.20;;
41881;SDS011;27562;47.524;12.404;2022-09-12T17:46:22;1.98;;;1.13;;
41881;SDS011;27562;47.524;12.404;2022-09-12T17:48:49;2.30;;;1.10;;
41881;SDS011;27562;47.524;12.404;2022-09-12T17:51:20;1.70;;;1.08;;
41881;SDS011;27562;47.524;12.404;2022-09-12T17:53:53;1.60;;;1.02;;
41881;SDS011;27562;47.524;12.404;2022-09-12T17:56:27;2.25;;;1.00;;
41881;SDS011;27562;47.524;12.404;2022-09-12T17:58:55;1.70;;;1.10;;
41881;SDS011;27562;47.524;12.404;2022-09-12T18:01:21;4.28;;;1.27;;
41881;SDS011;27562;47.524;12.404;2022-09-12T18:04:06;1.70;;;1.15;;
41881;SDS011;27562;47.524;12.404;2022-09-12T18:06:32;2.75;;;1.13;;
41881;SDS011;27562;47.524;12.404;2022-09-12T18:09:01;1.88;;;1.10;;
41881;SDS011;27562;47.524;12.404;2022-09-12T18:11:30;2.38;;;1.00;;
41881;SDS011;27562;47.524;12.404;2022-09-12T18:13:57;1.73;;;1.00;;
41881;SDS011;27562;47.524;12.404;2022-09-12T18:16:23;2.75;;;1.20;;
41881;SDS011;27562;47.524;12.404;2022-09-12T18:18:50;3.70;;;1.60;;